Time;durP1;ratioP1;P1;durP2;ratioP2;P2;SDS_P1;SDS_P2;PMS_P1;PMS_P2;Temp;Humidity;BMP_temperature;BMP_pressure;BME280_temperature;BME280_humidity;BME280_pressure;Samples;Min_cycle;Max_cycle;Signal;HPM_P1;HPM_P2
2021/12/20 00:00:53;;;;;;;21.20;7.07;;;2.70;99.90;;;;;;4992454;28;20023;-86
2021/12/20 00:03:18;;;;;;;20.37;7.17;;;2.70;99.90;;;;;;4976387;28;20045;-86
2021/12/20 04:06:36;;;;;;;16.23;6.63;;;2.60;99.90;;;;;;5032801;28;20037;-91
2021/12/20 04:09:22;;;;;;;12.87;5.57;;;2.60;99.90;;;;;;5018228;28;20034;-90
2021/12/20 04:12:26;;;;;;;16.23;6.03;;;2.50;99.90;;;;;;5025134;28;20033;-90
2021/12/20 04:15:17;;;;;;;;;;;;;;;;;;;;;
2021/12/20 04:24:35;;;;;;;;;;;;;;;;;;;;;
2021/12/20 04:27:28;;;;;;;17.80;6.30;;;2.50;99.90;;;;;;5042726;28;20105;-91
2021/12/20 04:33:20;;;;;;;17.50;6.57;;;2.30;99.90;;;;;;5028052;28;20052;-91
2021/12/20 04:38:52;;;;;;;14.93;6.30;;;2.40;99.90;;;;;;5165417;22;20053;-91
2021/12/20 04:44:42;;;;;;;16.60;6.20;;;2.30;99.90;;;;;;5004934;28;20030;-91
2021/12/20 04:47:30;;;;;;;17.17;6.10;;;2.30;99.90;;;;;;5017420;28;20034;-90
2021/12/20 04:50:29;;;;;;;;;;;;;;;;;;;;;
2021/12/20 04:53:20;;;;;;;15.23;6.33;;;2.30;99.90;;;;;;5024124;28;20089;-91
2021/12/20 04:56:40;;;;;;;15.93;6.53;;;2.30;99.90;;;;;;5010533;28;20033;-91
2021/12/20 04:59:31;;;;;;;14.50;5.10;;;2.30;99.90;;;;;;5008751;28;20200;-92
2021/12/20 05:02:19;;;;;;;;;;;;;;;;;;;;;
2021/12/20 05:05:28;;;;;;;18.90;7.57;;;2.30;99.90;;;;;;5021007;28;20109;-91
2021/12/20 05:11:57;;;;;;;;;;;;;;;;;;;;;
2021/12/20 05:50:39;;;;;;;16.03;6.73;;;2.30;99.90;;;;;;5022996;28;20054;-88
2021/12/20 05:53:14;;;;;;;16.80;6.20;;;2.30;99.90;;;;;;5024355;28;20029;-89
2021/12/20 05:55:41;;;;;;;19.03;7.20;;;2.30;99.90;;;;;;5009514;28;20018;-90
2021/12/20 05:58:07;;;;;;;19.43;6.67;;;2.30;99.90;;;;;;5006354;28;20022;-90
2021/12/20 06:00:33;;;;;;;15.80;6.30;;;2.40;99.90;;;;;;5013631;28;20055;-90
2021/12/20 06:03:02;;;;;;;18.03;6.90;;;2.40;99.90;;;;;;5015626;28;20041;-89
2021/12/20 06:05:27;;;;;;;18.33;6.47;;;2.40;99.90;;;;;;5024518;23;20464;-87
2021/12/20 06:07:53;;;;;;;17.63;6.80;;;2.40;99.90;;;;;;5008062;28;20129;-87
2021/12/20 06:10:19;;;;;;;18.70;6.53;;;2.40;99.90;;;;;;5007740;28;20400;-87
2021/12/20 06:12:45;;;;;;;20.50;7.33;;;2.40;99.90;;;;;;4990602;28;20037;-87
2021/12/20 06:15:12;;;;;;;20.20;7.77;;;2.40;99.90;;;;;;4988692;28;20034;-88
2021/12/20 06:17:37;;;;;;;17.03;7.63;;;2.40;99.90;;;;;;4991750;28;20033;-87
2021/12/20 06:20:06;;;;;;;17.13;7.03;;;2.40;99.90;;;;;;4981669;28;20038;-87
2021/12/20 06:22:31;;;;;;;19.03;7.40;;;2.40;99.90;;;;;;4989585;28;20022;-87
2021/12/20 06:24:57;;;;;;;18.57;6.63;;;2.40;99.90;;;;;;4986365;28;20086;-86
2021/12/20 06:27:24;;;;;;;21.13;7.17;;;2.40;99.90;;;;;;5004505;28;20038;-90
2021/12/20 06:29:51;;;;;;;14.03;6.03;;;2.40;99.90;;;;;;4988517;28;20528;-89
2021/12/20 06:32:16;;;;;;;18.53;6.33;;;2.30;99.90;;;;;;5006816;28;20062;-88
2021/12/20 06:34:44;;;;;;;19.70;6.97;;;2.50;99.90;;;;;;4992529;28;20027;-88
2021/12/20 06:37:12;;;;;;;18.47;7.07;;;2.30;99.90;;;;;;4992551;28;20117;-88
2021/12/20 06:39:37;;;;;;;17.23;6.77;;;2.30;99.90;;;;;;5007804;28;20026;-90
2021/12/20 06:42:04;;;;;;;16.27;6.10;;;2.30;99.90;;;;;;4993140;28;20036;-89
2021/12/20 06:44:29;;;;;;;19.57;6.60;;;2.40;99.90;;;;;;4987576;28;20030;-89
2021/12/20 06:46:59;;;;;;;19.20;6.40;;;2.40;99.90;;;;;;4993730;28;20471;-88
2021/12/20 06:49:25;;;;;;;14.53;6.03;;;2.40;99.90;;;;;;4977309;28;20030;-87
2021/12/20 06:51:53;;;;;;;18.17;6.87;;;2.40;99.90;;;;;;4972473;28;20042;-88
2021/12/20 06:54:26;;;;;;;14.87;6.43;;;2.40;99.90;;;;;;5009228;28;20038;-88
2021/12/20 06:56:52;;;;;;;18.47;5.97;;;2.30;99.90;;;;;;5026687;28;20082;-87
2021/12/20 06:59:18;;;;;;;16.87;6.87;;;2.30;99.90;;;;;;5028203;28;20029;-88
2021/12/20 07:01:45;;;;;;;14.23;6.43;;;2.40;99.90;;;;;;4989498;28;20022;-88
2021/12/20 07:04:12;;;;;;;16.47;6.47;;;2.30;99.90;;;;;;4979155;28;20125;-86
2021/12/20 07:06:38;;;;;;;15.43;5.90;;;2.40;99.90;;;;;;4976342;28;20038;-86
2021/12/20 07:09:04;;;;;;;18.07;6.77;;;2.40;99.90;;;;;;4974530;28;20093;-87
2021/12/20 07:11:30;;;;;;;16.23;6.30;;;2.40;99.90;;;;;;4999634;28;20094;-87
2021/12/20 07:13:56;;;;;;;19.80;6.90;;;2.40;99.90;;;;;;4971862;28;20031;-87
2021/12/20 07:16:22;;;;;;;16.90;6.40;;;2.40;99.90;;;;;;4973366;28;20062;-87
2021/12/20 07:18:48;;;;;;;20.43;6.97;;;2.40;99.90;;;;;;4972166;28;20041;-87
2021/12/20 07:21:14;;;;;;;23.30;7.00;;;2.30;99.90;;;;;;4974452;28;20027;-87
2021/12/20 07:23:39;;;;;;;18.83;6.67;;;2.30;99.90;;;;;;4971308;28;20049;-86
2021/12/20 07:26:09;;;;;;;17.57;7.17;;;2.30;99.90;;;;;;4972011;28;20106;-87
2021/12/20 07:28:35;;;;;;;18.83;7.63;;;2.30;99.90;;;;;;4976979;28;20182;-87
2021/12/20 07:31:01;;;;;;;20.47;7.87;;;2.30;99.90;;;;;;4973106;28;20527;-86
2021/12/20 07:33:27;;;;;;;18.60;7.77;;;2.30;99.90;;;;;;4971545;28;20035;-87
2021/12/20 07:35:52;;;;;;;18.00;6.23;;;2.30;99.90;;;;;;4982787;28;20117;-86
2021/12/20 07:38:19;;;;;;;18.07;5.77;;;2.30;99.90;;;;;;4991489;28;20400;-87
2021/12/20 07:40:45;;;;;;;18.20;5.57;;;2.40;99.90;;;;;;4989505;28;20077;-87
2021/12/20 07:43:14;;;;;;;17.90;6.10;;;2.40;99.90;;;;;;4990246;28;20030;-86
2021/12/20 07:45:40;;;;;;;19.73;6.57;;;2.40;99.90;;;;;;4986681;28;20109;-87
2021/12/20 07:48:06;;;;;;;17.17;6.97;;;2.40;99.90;;;;;;4971755;28;20125;-88
2021/12/20 07:50:32;;;;;;;19.53;7.23;;;2.40;99.90;;;;;;4977534;28;20078;-87
2021/12/20 07:52:58;;;;;;;16.47;6.33;;;2.40;99.90;;;;;;4988137;28;20042;-87
2021/12/20 07:55:23;;;;;;;17.03;6.13;;;2.40;99.90;;;;;;4981308;28;20030;-87
2021/12/20 07:57:50;;;;;;;17.20;6.80;;;2.40;99.90;;;;;;4971584;28;20030;-88
2021/12/20 08:00:20;;;;;;;14.23;6.07;;;2.50;99.90;;;;;;4983361;28;20030;-89
2021/12/20 08:02:49;;;;;;;17.50;7.50;;;2.50;99.90;;;;;;5001979;28;20037;-87
2021/12/20 08:05:15;;;;;;;15.67;6.67;;;2.50;99.90;;;;;;5003545;28;20034;-89
2021/12/20 08:07:41;;;;;;;15.00;5.87;;;2.50;99.90;;;;;;4997165;28;20395;-88
2021/12/20 08:10:08;;;;;;;17.47;6.90;;;2.50;99.90;;;;;;4977872;28;20038;-89
2021/12/20 08:12:35;;;;;;;19.00;6.27;;;2.50;99.90;;;;;;4977260;28;20110;-89
2021/12/20 08:15:00;;;;;;;16.53;6.67;;;2.50;99.90;;;;;;4990591;28;20034;-87
2021/12/20 08:17:28;;;;;;;20.17;7.30;;;2.60;99.90;;;;;;4990856;28;20061;-87
2021/12/20 08:19:54;;;;;;;15.17;5.97;;;2.50;99.90;;;;;;4986872;28;20081;-88
2021/12/20 08:22:24;;;;;;;19.20;6.43;;;2.50;99.90;;;;;;4987874;28;20069;-88
2021/12/20 08:24:50;;;;;;;20.10;7.17;;;2.60;99.90;;;;;;4978070;28;20020;-88
2021/12/20 08:27:15;;;;;;;22.47;6.10;;;2.60;99.90;;;;;;4987790;28;20396;-87
2021/12/20 08:29:41;;;;;;;17.43;6.90;;;2.60;99.90;;;;;;4990696;28;20041;-88
2021/12/20 08:32:07;;;;;;;18.90;6.67;;;2.60;99.90;;;;;;4996173;28;20031;-88
2021/12/20 08:34:32;;;;;;;16.13;7.00;;;2.70;99.90;;;;;;4988843;28;20214;-88
2021/12/20 08:37:00;;;;;;;19.17;7.17;;;2.70;99.90;;;;;;4972855;28;20058;-88
2021/12/20 08:39:27;;;;;;;18.27;6.20;;;2.70;99.90;;;;;;4971244;28;20042;-89
2021/12/20 08:41:53;;;;;;;16.10;6.47;;;2.80;99.90;;;;;;4971689;28;20548;-88
2021/12/20 08:44:19;;;;;;;16.33;5.70;;;2.80;99.90;;;;;;4986101;28;20035;-88
2021/12/20 08:46:45;;;;;;;15.53;6.17;;;2.80;99.90;;;;;;4987334;28;20078;-88
2021/12/20 08:49:10;;;;;;;17.97;6.80;;;2.80;99.90;;;;;;4987105;28;20061;-88
2021/12/20 08:51:37;;;;;;;21.00;7.00;;;2.90;99.90;;;;;;4990289;28;20042;-88
2021/12/20 08:54:03;;;;;;;16.77;6.73;;;2.90;99.90;;;;;;4990651;28;20033;-88
2021/12/20 08:56:29;;;;;;;17.53;6.07;;;2.90;99.90;;;;;;4990925;28;20065;-88
2021/12/20 08:58:55;;;;;;;16.27;6.07;;;2.90;99.90;;;;;;4992911;28;20061;-89
2021/12/20 09:01:21;;;;;;;17.57;6.33;;;3.00;99.90;;;;;;4996442;28;20098;-87
2021/12/20 09:03:46;;;;;;;15.67;6.20;;;3.00;99.90;;;;;;4991205;28;20022;-88
2021/12/20 09:06:14;;;;;;;14.93;6.13;;;3.00;99.90;;;;;;4970864;28;20045;-88
2021/12/20 09:08:42;;;;;;;16.90;6.53;;;3.00;99.90;;;;;;4970895;28;20023;-87
2021/12/20 09:11:08;;;;;;;17.77;6.90;;;3.10;99.90;;;;;;4975707;28;20023;-87
2021/12/20 09:13:34;;;;;;;18.93;6.23;;;3.10;99.90;;;;;;4992886;28;20488;-88
2021/12/20 09:15:59;;;;;;;19.07;7.10;;;3.10;99.90;;;;;;4994889;28;20031;-88
2021/12/20 09:18:27;;;;;;;17.47;5.93;;;3.10;99.90;;;;;;4997234;28;20447;-88
2021/12/20 09:20:57;;;;;;;15.00;6.03;;;3.10;99.90;;;;;;4991793;28;20042;-89
2021/12/20 09:23:26;;;;;;;17.30;6.80;;;3.10;99.90;;;;;;4991488;28;20026;-88
2021/12/20 09:25:51;;;;;;;17.77;6.77;;;3.10;99.90;;;;;;4994246;28;20026;-88
2021/12/20 09:28:17;;;;;;;17.00;6.73;;;3.20;99.90;;;;;;4995203;28;20019;-88
2021/12/20 09:30:45;;;;;;;17.87;6.60;;;3.20;99.90;;;;;;4994200;28;20030;-87
2021/12/20 09:33:11;;;;;;;20.07;7.40;;;3.20;99.90;;;;;;4992806;28;20046;-88
2021/12/20 09:35:38;;;;;;;16.90;6.03;;;3.30;99.90;;;;;;4993139;28;20034;-88
2021/12/20 09:38:08;;;;;;;15.10;6.27;;;3.30;99.90;;;;;;4993244;28;20034;-88
2021/12/20 09:40:39;;;;;;;17.53;7.70;;;3.30;99.90;;;;;;4992733;28;20026;-88
2021/12/20 09:43:09;;;;;;;18.17;7.90;;;3.30;99.90;;;;;;4992838;28;20031;-87
2021/12/20 09:45:36;;;;;;;16.70;6.73;;;3.30;99.90;;;;;;4993098;28;20050;-87
2021/12/20 09:48:02;;;;;;;18.70;7.27;;;3.30;99.90;;;;;;4993195;28;20031;-88
2021/12/20 09:50:28;;;;;;;19.97;7.37;;;3.40;99.90;;;;;;4993256;28;20444;-88
2021/12/20 09:52:54;;;;;;;20.33;7.20;;;3.40;99.90;;;;;;4986036;28;20081;-89
2021/12/20 09:55:20;;;;;;;21.23;7.83;;;3.50;99.90;;;;;;4993892;28;20026;-89
2021/12/20 09:57:48;;;;;;;17.27;7.70;;;3.60;99.90;;;;;;4992514;28;20058;-88
2021/12/20 10:00:17;;;;;;;22.70;8.33;;;3.60;99.90;;;;;;5010065;28;20029;-88
2021/12/20 10:02:44;;;;;;;20.40;7.30;;;3.60;99.90;;;;;;5013058;28;20025;-88
2021/12/20 10:05:12;;;;;;;21.77;8.97;;;3.80;99.90;;;;;;5012966;28;20113;-88
2021/12/20 10:07:39;;;;;;;21.53;7.67;;;4.00;99.90;;;;;;4999148;28;20392;-88
2021/12/20 10:10:06;;;;;;;22.10;8.07;;;4.10;99.90;;;;;;4990732;28;20022;-88
2021/12/20 10:12:32;;;;;;;16.30;7.53;;;4.20;99.90;;;;;;5008149;28;20026;-88
2021/12/20 10:15:10;;;;;;;21.73;7.97;;;4.20;99.90;;;;;;4991450;28;20447;-88
2021/12/20 10:17:56;;;;;;;18.93;7.93;;;4.40;99.90;;;;;;4982877;28;20031;-88
2021/12/20 10:20:24;;;;;;;19.80;7.77;;;4.50;99.90;;;;;;4973471;28;20031;-88
2021/12/20 10:22:52;;;;;;;14.70;6.07;;;4.60;99.90;;;;;;4983211;28;20027;-90
2021/12/20 10:25:29;;;;;;;17.63;5.00;;;4.50;99.90;;;;;;4989235;28;20026;-89
2021/12/20 10:28:06;;;;;;;14.20;5.63;;;4.50;99.90;;;;;;4989826;28;20050;-91
2021/12/20 10:30:35;;;;;;;16.00;5.90;;;4.60;99.90;;;;;;4992279;28;20396;-90
2021/12/20 10:33:04;;;;;;;16.10;5.53;;;4.60;99.90;;;;;;4991926;28;20500;-89
2021/12/20 10:35:36;;;;;;;10.47;4.60;;;4.70;99.90;;;;;;4991381;28;20030;-87
2021/12/20 10:38:21;;;;;;;8.87;3.67;;;4.80;99.90;;;;;;4991958;28;20104;-87
2021/12/20 10:41:09;;;;;;;9.17;3.80;;;4.70;99.90;;;;;;4992276;28;20114;-89
2021/12/20 10:43:40;;;;;;;11.50;4.67;;;4.80;99.90;;;;;;4987387;28;20030;-89
2021/12/20 10:46:16;;;;;;;11.63;3.87;;;4.80;99.90;;;;;;4995505;28;20053;-89
2021/12/20 10:48:45;;;;;;;10.80;4.60;;;4.70;99.90;;;;;;4989459;28;20397;-88
2021/12/20 10:51:26;;;;;;;13.07;4.60;;;4.70;99.90;;;;;;4974112;28;20027;-89
2021/12/20 10:53:59;;;;;;;12.30;5.17;;;4.70;99.90;;;;;;4989318;28;20069;-88
2021/12/20 10:56:25;;;;;;;14.90;4.40;;;4.60;99.90;;;;;;4986010;28;20026;-88
2021/12/20 10:58:51;;;;;;;12.90;5.47;;;4.60;99.90;;;;;;4997402;28;20072;-88
2021/12/20 11:04:12;;;;;;;13.17;4.73;;;4.50;99.90;;;;;;4987535;28;20056;-88
2021/12/20 11:09:15;;;;;;;13.60;4.87;;;4.40;99.90;;;;;;4993897;28;20026;-90
2021/12/20 11:11:53;;;;;;;13.20;5.47;;;4.30;99.90;;;;;;4992550;28;20531;-88
2021/12/20 11:14:22;;;;;;;13.87;4.53;;;4.20;99.90;;;;;;4991078;28;20380;-88
2021/12/20 11:16:51;;;;;;;11.43;4.77;;;4.10;99.90;;;;;;4991658;28;20053;-89
2021/12/20 11:19:34;;;;;;;12.87;4.67;;;4.10;99.90;;;;;;4991914;28;20038;-89
2021/12/20 11:22:08;;;;;;;15.67;5.73;;;4.10;99.90;;;;;;4991803;28;20068;-89
2021/12/20 11:24:47;;;;;;;11.30;5.27;;;4.00;99.90;;;;;;4989575;28;20118;-89
2021/12/20 11:27:17;;;;;;;14.33;5.80;;;4.10;99.90;;;;;;4989368;28;20049;-90
2021/12/20 11:29:45;;;;;;;12.37;4.87;;;4.10;99.90;;;;;;5006670;28;20365;-90
2021/12/20 11:32:12;;;;;;;11.57;4.10;;;4.30;99.90;;;;;;5005389;28;20060;-90
2021/12/20 11:34:41;;;;;;;13.00;4.70;;;4.40;99.90;;;;;;5004454;28;20562;-90
2021/12/20 11:37:15;;;;;;;8.80;3.70;;;4.60;99.90;;;;;;4990803;28;20030;-90
2021/12/20 11:39:42;;;;;;;9.63;3.73;;;4.60;99.90;;;;;;4988576;28;20034;-90
2021/12/20 11:42:08;;;;;;;12.20;4.47;;;4.60;99.90;;;;;;4987324;28;20023;-89
2021/12/20 11:44:36;;;;;;;12.50;4.47;;;4.50;99.90;;;;;;4991884;28;20023;-89
2021/12/20 11:47:14;;;;;;;10.67;3.97;;;4.60;99.90;;;;;;4991656;28;20027;-90
2021/12/20 11:49:40;;;;;;;12.03;4.17;;;4.70;99.90;;;;;;4986052;28;20054;-90
2021/12/20 11:52:19;;;;;;;14.63;5.13;;;4.80;99.90;;;;;;4972837;28;20030;-88
2021/12/20 11:54:51;;;;;;;11.37;4.20;;;4.90;99.90;;;;;;4973257;28;20038;-90
2021/12/20 11:57:38;;;;;;;11.70;4.15;;;5.00;99.90;;;;;;4974353;28;20034;-90
2021/12/20 12:00:09;;;;;;;12.27;3.97;;;4.90;99.90;;;;;;4983912;28;20038;-89
2021/12/20 12:02:42;;;;;;;11.37;3.67;;;5.00;99.90;;;;;;4992424;28;20046;-89
2021/12/20 12:05:18;;;;;;;11.43;4.63;;;4.90;99.90;;;;;;4989213;28;20038;-89
2021/12/20 12:57:17;;;;;;;10.93;4.77;;;4.40;99.90;;;;;;5198965;22;20041;-92
2021/12/20 13:03:38;;;;;;;;;;;;;;;;;;;;;
2021/12/20 13:09:57;;;;;;;10.40;4.30;;;4.50;99.90;;;;;;4950533;29;20032;-94
2021/12/20 13:15:52;;;;;;;15.07;4.30;;;4.50;99.90;;;;;;4943549;29;20032;-94
2021/12/20 13:18:58;;;;;;;;;;;;;;;;;;;;;
2021/12/20 13:22:07;;;;;;;10.77;4.47;;;4.40;99.90;;;;;;5029821;28;20046;-95
2021/12/20 13:28:48;;;;;;;20.10;5.37;;;4.20;99.90;;;;;;4962863;29;20089;-93
2021/12/20 13:32:08;;;;;;;14.88;5.05;;;4.10;99.90;;;;;;4992925;28;20551;-94
2021/12/20 13:35:13;;;;;;;13.80;4.63;;;4.20;99.90;;;;;;4977322;28;20023;-94
2021/12/20 13:38:34;;;;;;;;;;;;;;;;;;;;;
2021/12/20 13:41:24;;;;;;;15.10;4.63;;;4.20;99.90;;;;;;4967281;28;20039;-89
2021/12/20 13:43:58;;;;;;;15.68;6.05;;;4.10;99.90;;;;;;4963912;29;20065;-93
2021/12/20 13:47:04;;;;;;;;;;;;;;;;;;;;;
2021/12/20 13:49:56;;;;;;;;;;;;;;;;;;;;;
2021/12/20 13:53:18;;;;;;;9.73;4.20;;;3.90;99.90;;;;;;5020955;28;20054;-92
2021/12/20 13:56:26;;;;;;;10.57;4.37;;;3.80;99.90;;;;;;5009488;28;20057;-93
2021/12/20 13:59:28;;;;;;;12.10;4.33;;;3.70;99.90;;;;;;5014731;28;20091;-93
2021/12/20 14:02:33;;;;;;;13.25;4.47;;;3.60;99.90;;;;;;5013642;28;20057;-93
2021/12/20 14:05:47;;;;;;;11.23;4.50;;;3.60;99.90;;;;;;5010420;28;20105;-92
2021/12/20 14:16:30;;;;;;;13.13;4.20;;;3.50;99.90;;;;;;5128856;23;20053;-92
2021/12/20 14:19:05;;;;;;;10.63;4.57;;;3.40;99.90;;;;;;4998713;28;20061;-91
2021/12/20 14:22:33;;;;;;;9.13;3.43;;;3.40;99.90;;;;;;5013306;28;20022;-92
2021/12/20 14:29:16;;;;;;;10.43;3.03;;;3.40;99.90;;;;;;4872294;29;20081;-92
2021/12/20 14:35:18;;;;;;;;;;;;;;;;;;;;;
2021/12/20 14:53:24;;;;;;;6.53;2.53;;;3.30;99.90;;;;;;5048991;22;20297;-92
2021/12/20 14:56:15;;;;;;;8.53;2.53;;;3.20;99.90;;;;;;5010100;28;20029;-92
2021/12/20 14:58:47;;;;;;;7.30;2.90;;;3.20;99.90;;;;;;5021889;28;20032;-92
2021/12/20 15:01:38;;;;;;;;;;;;;;;;;;;;;
2021/12/20 15:04:30;;;;;;;6.00;2.37;;;3.10;99.90;;;;;;5045348;28;20049;-91
2021/12/20 15:54:12;;;;;;;8.27;2.77;;;2.30;99.90;;;;;;5016069;28;20529;-92
2021/12/20 15:57:12;;;;;;;9.83;3.50;;;2.20;99.90;;;;;;5025205;28;20093;-92
2021/12/20 15:59:53;;;;;;;6.30;2.40;;;2.20;99.90;;;;;;5029187;28;20030;-92
2021/12/20 16:05:54;;;;;;;10.03;3.30;;;2.20;99.90;;;;;;5004874;28;20062;-92
2021/12/20 16:08:36;;;;;;;13.83;2.87;;;2.20;99.90;;;;;;5021108;28;20124;-92
2021/12/20 16:11:03;;;;;;;7.80;2.83;;;2.20;99.90;;;;;;5022367;28;20057;-90
2021/12/20 16:13:37;;;;;;;8.40;3.00;;;2.20;99.90;;;;;;5019412;28;20056;-92
2021/12/20 16:19:47;;;;;;;9.37;2.87;;;2.20;99.90;;;;;;5040028;28;20043;-93
2021/12/20 16:26:06;;;;;;;;;;;;;;;;;;;;;
2021/12/20 16:33:13;;;;;;;;;;;;;;;;;;;;;
2021/12/20 16:43:16;;;;;;;7.83;2.30;;;2.00;99.90;;;;;;4900778;29;20104;-92
2021/12/20 16:54:35;;;;;;;;;;;;;;;;;;;;;
2021/12/20 16:57:43;;;;;;;6.17;2.17;;;1.90;99.90;;;;;;5047150;28;20089;-93
2021/12/20 17:00:35;;;;;;;5.57;1.97;;;1.90;99.90;;;;;;4997517;28;20257;-92
2021/12/20 17:09:53;;;;;;;9.00;2.63;;;1.80;99.90;;;;;;5138986;23;20053;-92
2021/12/20 17:12:56;;;;;;;6.40;1.60;;;1.80;99.90;;;;;;4983804;28;20072;-93
2021/12/20 18:10:43;;;;;;;8.20;1.80;;;1.50;99.90;;;;;;5053758;28;20041;-87
2021/12/20 18:13:12;;;;;;;7.87;1.60;;;1.40;99.90;;;;;;5038444;28;20084;-87
2021/12/20 18:15:40;;;;;;;8.63;1.67;;;1.40;99.90;;;;;;5037018;28;20029;-87
2021/12/20 18:18:11;;;;;;;7.40;2.00;;;1.50;99.90;;;;;;5030900;28;20037;-87
2021/12/20 18:20:43;;;;;;;5.93;1.30;;;1.40;99.90;;;;;;5029823;28;20018;-86
2021/12/20 18:23:12;;;;;;;7.50;1.65;;;1.40;99.90;;;;;;5036195;28;20022;-88
2021/12/20 18:25:41;;;;;;;7.27;1.70;;;1.50;99.90;;;;;;5051482;28;20480;-88
2021/12/20 18:28:10;;;;;;;4.70;1.47;;;1.50;99.90;;;;;;5055430;28;20037;-87
2021/12/20 18:30:41;;;;;;;6.27;1.87;;;1.50;99.90;;;;;;5053877;28;20026;-88
2021/12/20 18:33:21;;;;;;;3.30;1.13;;;1.40;99.90;;;;;;5032578;28;20021;-87
2021/12/20 18:35:54;;;;;;;5.87;1.90;;;1.40;99.90;;;;;;5016875;28;20018;-89
2021/12/20 18:38:32;;;;;;;5.43;1.70;;;1.40;99.90;;;;;;5029764;28;20025;-87
2021/12/20 18:41:02;;;;;;;12.00;1.50;;;1.40;99.90;;;;;;5026330;28;20025;-86
2021/12/20 18:43:28;;;;;;;4.13;1.30;;;1.40;99.90;;;;;;5022946;28;20028;-86
2021/12/20 18:45:54;;;;;;;4.37;0.93;;;1.40;99.90;;;;;;5023832;28;20542;-86
2021/12/20 18:48:23;;;;;;;7.07;2.30;;;1.30;99.90;;;;;;5021759;28;20128;-86
2021/12/20 18:50:52;;;;;;;11.17;1.90;;;1.30;99.90;;;;;;5005365;28;20549;-84
2021/12/20 18:53:24;;;;;;;9.53;1.57;;;1.30;99.90;;;;;;5023521;28;20117;-83
2021/12/20 18:55:53;;;;;;;1.58;0.55;;;1.30;99.90;;;;;;5019962;28;20030;-86
2021/12/20 18:58:20;;;;;;;5.80;1.53;;;1.40;99.90;;;;;;5019852;28;20383;-85
2021/12/20 19:00:49;;;;;;;3.73;1.33;;;1.40;99.90;;;;;;5033773;28;20091;-86
2021/12/20 19:03:17;;;;;;;7.53;1.53;;;1.40;99.90;;;;;;5038711;28;20483;-84
2021/12/20 19:05:51;;;;;;;5.40;1.50;;;1.40;99.90;;;;;;5038961;28;20049;-85
2021/12/20 19:08:24;;;;;;;6.13;1.43;;;1.40;99.90;;;;;;5020108;28;20056;-85
2021/12/20 19:11:10;;;;;;;4.97;1.20;;;1.30;99.90;;;;;;5032480;28;20032;-86
2021/12/20 19:14:03;;;;;;;5.00;1.17;;;1.40;99.90;;;;;;5040443;28;20022;-85
2021/12/20 19:16:30;;;;;;;6.23;1.30;;;1.30;99.90;;;;;;5014202;28;20033;-84
2021/12/20 19:18:59;;;;;;;7.57;1.77;;;1.20;99.90;;;;;;5035739;28;20018;-84
2021/12/20 19:21:29;;;;;;;4.67;1.57;;;1.20;99.90;;;;;;5020425;28;20063;-87
2021/12/20 19:23:56;;;;;;;4.90;2.00;;;1.10;99.90;;;;;;5024796;28;20019;-86
2021/12/20 19:26:21;;;;;;;5.40;1.87;;;1.10;99.90;;;;;;5025843;28;20037;-85
2021/12/20 19:28:47;;;;;;;6.17;1.87;;;1.00;99.90;;;;;;5021733;28;20025;-84
2021/12/20 19:31:19;;;;;;;6.27;1.80;;;1.00;99.90;;;;;;5016511;28;20052;-86
2021/12/20 19:33:45;;;;;;;7.25;1.80;;;0.90;99.90;;;;;;5021703;28;20027;-86
2021/12/20 19:36:11;;;;;;;12.40;1.73;;;0.80;99.90;;;;;;5020901;28;20049;-84
2021/12/20 19:38:38;;;;;;;8.03;1.87;;;0.80;99.90;;;;;;5023262;28;20029;-87
2021/12/20 19:41:05;;;;;;;7.27;2.00;;;0.70;99.90;;;;;;5020335;28;20195;-84
2021/12/20 19:43:33;;;;;;;13.63;3.53;;;0.70;99.90;;;;;;5041130;28;20354;-84
2021/12/20 19:45:59;;;;;;;36.60;7.43;;;0.70;99.90;;;;;;5038722;28;20026;-85
2021/12/20 19:48:28;;;;;;;33.87;6.47;;;0.60;99.90;;;;;;5018268;28;20090;-85
2021/12/20 19:50:57;;;;;;;18.80;5.43;;;0.60;99.90;;;;;;5020156;28;20021;-86
2021/12/20 19:53:23;;;;;;;10.67;3.13;;;0.50;99.90;;;;;;5020937;28;20083;-85
2021/12/20 19:55:49;;;;;;;12.03;3.00;;;0.50;99.90;;;;;;5021662;28;20025;-85
2021/12/20 19:58:20;;;;;;;8.60;2.30;;;0.50;99.90;;;;;;5020591;28;20029;-85
2021/12/20 20:00:46;;;;;;;4.77;1.90;;;0.50;99.90;;;;;;5017477;28;20056;-85
2021/12/20 20:03:14;;;;;;;9.70;2.50;;;0.50;99.90;;;;;;5040203;28;20109;-85
2021/12/20 20:05:41;;;;;;;11.73;3.20;;;0.40;99.90;;;;;;5023003;28;20059;-86
2021/12/20 20:08:07;;;;;;;9.83;2.33;;;0.30;99.90;;;;;;5025912;28;20113;-86
2021/12/20 20:10:33;;;;;;;9.93;2.87;;;0.30;99.90;;;;;;5049313;28;20052;-84
2021/12/20 20:13:04;;;;;;;12.00;3.67;;;0.30;99.90;;;;;;5031694;28;20022;-86
2021/12/20 20:15:34;;;;;;;8.07;2.83;;;0.30;99.90;;;;;;5035019;28;20524;-86
2021/12/20 20:18:02;;;;;;;9.83;3.20;;;0.30;99.90;;;;;;5021206;28;20021;-85
2021/12/20 20:20:28;;;;;;;4.50;2.07;;;0.40;99.90;;;;;;5037080;28;20052;-85
2021/12/20 20:22:58;;;;;;;10.23;2.40;;;0.30;99.90;;;;;;5037542;28;20037;-85
2021/12/20 20:25:25;;;;;;;8.47;2.37;;;0.30;99.90;;;;;;5020936;28;20108;-87
2021/12/20 20:28:05;;;;;;;7.90;2.20;;;0.30;99.90;;;;;;5035521;28;20128;-85
2021/12/20 20:30:35;;;;;;;9.37;2.60;;;0.30;99.90;;;;;;5037897;28;20052;-85
2021/12/20 20:33:13;;;;;;;9.70;2.87;;;0.20;99.90;;;;;;5038791;28;20035;-85
2021/12/20 20:35:39;;;;;;;6.43;2.17;;;0.20;99.90;;;;;;5020024;28;20030;-86
2021/12/20 20:38:05;;;;;;;9.47;2.87;;;0.20;99.90;;;;;;5036013;28;20091;-87
2021/12/20 20:40:31;;;;;;;5.40;2.23;;;0.10;99.90;;;;;;5017903;28;20070;-86
2021/12/20 20:43:01;;;;;;;6.87;2.07;;;0.10;99.90;;;;;;5036919;28;20033;-85
2021/12/20 20:45:31;;;;;;;6.03;2.40;;;0.10;99.90;;;;;;5037383;28;20049;-86
2021/12/20 20:48:00;;;;;;;6.27;2.30;;;0.10;99.90;;;;;;5018726;28;20029;-83
2021/12/20 20:50:28;;;;;;;7.70;2.47;;;0.10;99.90;;;;;;5022786;28;20029;-84
2021/12/20 20:52:54;;;;;;;8.07;3.00;;;0.00;99.90;;;;;;5022735;28;20072;-86
2021/12/20 20:55:25;;;;;;;12.57;2.93;;;0.00;99.90;;;;;;5037523;28;20093;-86
2021/12/20 20:57:55;;;;;;;8.00;3.07;;;0.00;99.90;;;;;;5015699;28;20021;-84
2021/12/20 21:03:17;;;;;;;9.33;2.77;;;0.00;99.90;;;;;;5036729;28;20117;-84
2021/12/20 21:05:42;;;;;;;5.87;2.70;;;0.00;99.90;;;;;;5019735;28;20112;-87
2021/12/20 21:08:08;;;;;;;7.20;3.03;;;0.00;99.90;;;;;;5037135;28;20045;-85
2021/12/20 21:10:35;;;;;;;8.00;3.97;;;-0.10;99.90;;;;;;5018618;28;20041;-85
2021/12/20 21:13:05;;;;;;;6.37;2.27;;;-0.10;99.90;;;;;;5017081;28;20052;-85
2021/12/20 21:15:33;;;;;;;10.30;2.97;;;-0.10;99.90;;;;;;5020002;28;20021;-84
2021/12/20 21:18:00;;;;;;;6.60;2.87;;;-0.10;99.90;;;;;;5026087;28;20073;-85
2021/12/20 21:20:25;;;;;;;8.53;2.40;;;-0.20;99.90;;;;;;5021902;28;20029;-83
2021/12/20 21:22:51;;;;;;;9.90;2.90;;;-0.20;99.90;;;;;;5007031;28;20685;-85
2021/12/20 21:25:17;;;;;;;8.37;2.40;;;-0.20;99.90;;;;;;5035188;28;20022;-85
2021/12/20 21:27:43;;;;;;;7.33;2.40;;;-0.20;99.90;;;;;;5022178;28;20037;-85
2021/12/20 21:30:10;;;;;;;9.20;2.40;;;-0.20;99.90;;;;;;5022782;28;20075;-84
2021/12/20 21:32:39;;;;;;;6.47;2.47;;;-0.20;99.90;;;;;;5023498;28;20037;-85
2021/12/20 21:35:06;;;;;;;5.27;2.40;;;-0.20;99.90;;;;;;5026498;28;20030;-84
2021/12/20 21:37:32;;;;;;;6.60;2.30;;;-0.20;99.90;;;;;;5024070;28;20040;-85
2021/12/20 21:39:58;;;;;;;8.90;2.67;;;-0.20;99.90;;;;;;5024126;28;20029;-87
2021/12/20 21:42:27;;;;;;;9.63;2.30;;;-0.20;99.90;;;;;;5021702;28;20431;-87
2021/12/20 21:44:53;;;;;;;8.70;2.00;;;0.00;99.90;;;;;;5021385;28;20105;-85
2021/12/20 21:47:19;;;;;;;5.40;2.03;;;0.00;99.90;;;;;;5041913;28;20022;-85
2021/12/20 21:49:45;;;;;;;5.37;1.70;;;0.00;99.90;;;;;;5023481;28;20026;-85
2021/12/20 21:52:26;;;;;;;7.60;1.70;;;0.00;99.90;;;;;;5024715;28;20025;-85
2021/12/20 21:55:00;;;;;;;5.07;1.40;;;-0.10;99.90;;;;;;5036891;28;20036;-86
2021/12/20 21:57:26;;;;;;;3.03;1.70;;;-0.10;99.90;;;;;;5024112;28;20442;-85
2021/12/20 22:00:02;;;;;;;11.73;2.20;;;-0.20;99.90;;;;;;5022395;28;20022;-86
2021/12/20 22:02:46;;;;;;;5.10;2.03;;;-0.10;99.90;;;;;;5040877;28;20029;-84
2021/12/20 22:05:12;;;;;;;3.30;1.17;;;-0.20;99.90;;;;;;5025903;28;20029;-85
2021/12/20 22:07:38;;;;;;;4.27;1.67;;;-0.20;99.90;;;;;;5041078;28;20013;-86
2021/12/20 22:10:09;;;;;;;3.17;1.33;;;-0.20;99.90;;;;;;5044194;28;20030;-84
2021/12/20 22:12:35;;;;;;;8.80;1.60;;;-0.20;99.90;;;;;;5041908;28;20021;-86
2021/12/20 22:15:04;;;;;;;6.90;2.23;;;-0.20;99.90;;;;;;5026571;28;20017;-85
2021/12/20 22:17:30;;;;;;;7.60;1.70;;;-0.20;99.90;;;;;;5044135;28;20021;-84
2021/12/20 22:19:57;;;;;;;5.27;2.00;;;-0.30;99.90;;;;;;5029527;28;20030;-86
2021/12/20 22:22:23;;;;;;;4.10;1.60;;;-0.30;99.90;;;;;;5048879;28;20031;-83
2021/12/20 22:24:48;;;;;;;4.63;1.60;;;-0.40;99.90;;;;;;5029279;28;20022;-87
2021/12/20 22:27:14;;;;;;;6.20;1.83;;;-0.40;99.90;;;;;;5022911;28;20017;-85
2021/12/20 22:29:44;;;;;;;4.13;1.30;;;-0.40;99.90;;;;;;5026567;28;20018;-86
2021/12/20 22:32:10;;;;;;;4.30;2.00;;;-0.40;99.90;;;;;;5026960;28;20033;-83
2021/12/20 22:34:36;;;;;;;7.63;1.83;;;-0.50;99.90;;;;;;5037288;28;20046;-84
2021/12/20 22:37:02;;;;;;;6.97;2.27;;;-0.50;99.90;;;;;;5027265;28;20036;-84